Ryukaku — JD2887 — position and weather

sailwx.info

Track history (hours):
 
Tides and Currents Weather Stations Pressure Air Temp Water Temp Dewpoint Dewpoint Depression Visibility Wind Speed Wind Dir Waves Ship Positions

Ryukaku

Last reported at 2018-May-23 09:28 UTC. Time now 2018-Jun-18 15:13 UTC.
Position N 34°25' E 134°22'.
Warning: this ship's position is 26 days out of date.

Length 74 m; draft 4 m.

Type: Cargo ship. MMSI: 431000913.

Date/timePositionNaut miles runAvg speedWind from/ knotsBaromVisibWave heightAir tempDewpointWater temp
2018-May-23 09:28N 34°25' E 134°22'612.1
2018-May-23 08:58N 34°27' E 134°29'612.4
2018-May-23 08:30N 34°29' E 134°35'612.6
2018-May-23 08:00N 34°32' E 134°43'713.4
2018-May-23 07:31N 34°34' E 134°50'1013.7
2018-May-23 06:48N 34°37' E 135°01'412.8
2018-May-23 06:30N 34°36' E 135°05'611.5
2018-May-23 06:00N 34°39' E 135°11'2 3.2
2018-May-23 05:30N 34°40' E 135°11'0 0.0
2018-May-23 05:00N 34°40' E 135°11'0 0.0
2018-May-23 04:27N 34°40' E 135°11'0 0.0
2018-May-23 03:57N 34°40' E 135°11'1 2.2
2018-May-23 03:30N 34°39' E 135°11'1 2.1
2018-May-23 02:58N 34°38' E 135°11'0 0.1
2018-May-23 02:22N 34°38' E 135°11'0 0.0
2018-May-23 01:58N 34°38' E 135°11'0 0.0
2018-May-23 01:22N 34°38' E 135°11'0 0.1
2018-May-23 00:58N 34°38' E 135°11'0 0.0
2018-May-23 00:28N 34°38' E 135°11'0 0.1
2018-May-22 23:58N 34°38' E 135°11'0 0.1
2018-May-22 23:28N 34°38' E 135°11'2 4.7
2018-May-22 23:00N 34°38' E 135°13'3 6.4
2018-May-22 22:30N 34°41' E 135°14'1 1.5
2018-May-22 21:50N 34°41' E 135°13'0 0.0
2018-May-22 21:02N 34°41' E 135°13'0 0.0
2018-May-22 20:56N 34°41' E 135°13'0 0.0
2018-May-22 20:26N 34°41' E 135°13'0 0.0
2018-May-22 19:56N 34°41' E 135°13'0 0.0
2018-May-22 19:26N 34°41' E 135°13'0 0.0
2018-May-22 18:50N 34°41' E 135°13'0 0.0
2018-May-22 18:26N 34°41' E 135°13'0 0.0
2018-May-22 17:44N 34°41' E 135°13'0 0.0
2018-May-22 17:14N 34°41' E 135°13'0 0.0
2018-May-22 16:20N 34°41' E 135°13'0 0.0
2018-May-22 15:56N 34°41' E 135°13'0 0.0
2018-May-22 15:26N 34°41' E 135°13'0 0.0
2018-May-22 14:56N 34°41' E 135°13'0 0.0
2018-May-22 14:26N 34°41' E 135°13'0 0.0
2018-May-22 13:50N 34°41' E 135°13'0 0.0
2018-May-22 13:26N 34°41' E 135°13'0 0.0
2018-May-22 12:56N 34°41' E 135°13'0 0.0
2018-May-22 12:20N 34°41' E 135°13'0 0.0
2018-May-22 11:56N 34°41' E 135°13'0 0.0
2018-May-22 11:26N 34°41' E 135°13'0 0.0
2018-May-22 10:44N 34°41' E 135°13'0 0.0
2018-May-22 10:26N 34°41' E 135°13'0 0.0
2018-May-22 09:50N 34°41' E 135°13'0 0.0
2018-May-22 09:26N 34°41' E 135°13'0 0.0
2018-May-22 08:56N 34°41' E 135°13'0 0.0
2018-May-22 08:26N 34°41' E 135°13'0 0.0
2018-May-22 07:56N 34°41' E 135°13'0 0.0
2018-May-22 07:20N 34°41' E 135°13'0 0.0
2018-May-22 06:56N 34°41' E 135°13'0 0.0
2018-May-22 06:14N 34°41' E 135°13'0 0.0
2018-May-22 05:56N 34°41' E 135°13'0 0.0
2018-May-22 05:26N 34°41' E 135°13'0 0.0
2018-May-22 04:56N 34°41' E 135°13'0 0.0
2018-May-22 04:26N 34°41' E 135°13'0 0.0
2018-May-22 03:56N 34°41' E 135°13'0 0.0
2018-May-22 03:14N 34°41' E 135°13'0 0.0
2018-May-22 02:56N 34°41' E 135°13'0 0.0
2018-May-22 02:26N 34°41' E 135°13'0 0.0
2018-May-22 01:56N 34°41' E 135°13'0 0.0
2018-May-22 01:26N 34°41' E 135°13'0 0.0
2018-May-22 00:56N 34°41' E 135°13'0 0.0
2018-May-22 00:26N 34°41' E 135°13'0 0.0
2018-May-21 23:56N 34°41' E 135°13'0 0.0
2018-May-21 23:26N 34°41' E 135°13'0 0.0
2018-May-21 22:56N 34°41' E 135°13'0 0.3
2018-May-21 22:30N 34°42' E 135°13'3 6.4
2018-May-21 22:00N 34°39' E 135°16'1 1.1
2018-May-21 21:26N 34°39' E 135°15'0 0.0
2018-May-21 20:56N 34°39' E 135°15'0 0.0
2018-May-21 20:26N 34°39' E 135°15'0 0.0
2018-May-21 19:56N 34°39' E 135°15'0 0.0
2018-May-21 19:26N 34°39' E 135°15'0 0.0
2018-May-21 18:50N 34°39' E 135°15'0 0.0
2018-May-21 18:26N 34°39' E 135°15'0 0.0
2018-May-21 17:56N 34°39' E 135°15'0 0.1
2018-May-21 17:20N 34°39' E 135°15'0 0.0
2018-May-21 16:56N 34°38' E 135°15'0 0.0
2018-May-21 16:20N 34°39' E 135°15'0 0.0
2018-May-21 15:56N 34°39' E 135°15'0 0.0
2018-May-21 15:26N 34°39' E 135°15'0 0.1
2018-May-21 14:50N 34°39' E 135°16'0 0.0
2018-May-21 14:26N 34°39' E 135°16'0 0.0
2018-May-21 13:59N 34°39' E 135°16'0 0.0
2018-May-21 13:29N 34°39' E 135°16'0 0.0
2018-May-21 12:59N 34°39' E 135°16'0 0.0
2018-May-21 12:26N 34°39' E 135°16'0 0.0
2018-May-21 11:50N 34°39' E 135°16'0 0.0
2018-May-21 11:20N 34°39' E 135°16'0 0.0
2018-May-21 10:56N 34°39' E 135°16'0 0.0
2018-May-21 10:20N 34°39' E 135°16'2 6.6
2018-May-21 10:00N 34°37' E 135°14'712.9
2018-May-21 09:28N 34°35' E 135°06'713.7
2018-May-21 08:59N 34°37' E 134°58'613.4
2018-May-21 08:30N 34°39' E 134°51'3 0.3
2018-May-20 22:46N 34°42' E 134°50'2 0.9
2018-May-20 20:28N 34°41' E 134°48'0 0.0
2018-May-20 19:58N 34°41' E 134°48'0 0.0
2018-May-20 02:11N 34°41' E 134°48'1 5.0
2018-May-20 02:00N 34°41' E 134°47'1010.9
2018-May-20 01:03N 34°34' E 134°37'  
2018-May-14 09:55N 33°23' E 129°34'510.9
2018-May-14 09:27N 33°27' E 129°38'612.1
2018-May-14 08:59N 33°31' E 129°43'612.4
2018-May-14 08:30N 33°35' E 129°48'612.5
2018-May-14 07:59N 33°39' E 129°54'612.3
2018-May-14 07:29N 33°43' E 129°60'612.1
2018-May-14 07:00N 33°46' E 130°06'612.0
2018-May-14 06:30N 33°49' E 130°12'611.8
2018-May-14 06:00N 33°52' E 130°18'611.5
2018-May-14 05:30N 33°56' E 130°23'611.0
2018-May-14 05:00N 33°58' E 130°29'510.8
2018-May-14 04:30N 33°60' E 130°36'510.9
2018-May-14 04:00N 34°02' E 130°42'510.0
2018-May-14 03:30N 34°02' E 130°48'5 9.0
2018-May-14 03:00N 33°58' E 130°50'3 6.9
2018-May-14 02:30N 33°55' E 130°49'1 1.3
2018-May-14 02:00N 33°55' E 130°48'0 0.0
2018-May-14 01:31N 33°55' E 130°48'0 0.0
2018-May-14 00:58N 33°55' E 130°48'0 0.0
2018-May-14 00:28N 33°55' E 130°48'0 0.0
2018-May-13 23:55N 33°55' E 130°48'0 0.0
2018-May-13 23:28N 33°55' E 130°48'0 0.0
2018-May-13 22:58N 33°55' E 130°48'0 0.0
2018-May-13 22:28N 33°55' E 130°48'0 0.0
2018-May-13 21:58N 33°55' E 130°48'0 0.0
2018-May-13 21:28N 33°55' E 130°48'0 0.0
2018-May-13 20:58N 33°55' E 130°48'0 0.0
2018-May-13 20:28N 33°55' E 130°48'0 0.0
2018-May-13 19:58N 33°55' E 130°48'0 0.0
2018-May-13 19:28N 33°55' E 130°48'0 0.0
2018-May-13 18:58N 33°55' E 130°48'0 0.0
2018-May-13 18:28N 33°55' E 130°48'0 0.0
2018-May-13 17:58N 33°55' E 130°48'0 0.0
2018-May-13 17:28N 33°55' E 130°48'0 0.0
2018-May-13 16:58N 33°55' E 130°48'0 0.0
2018-May-13 16:28N 33°55' E 130°48'0 0.0
2018-May-13 15:58N 33°55' E 130°48'0 0.0
2018-May-13 15:28N 33°55' E 130°48'0 0.0
2018-May-13 14:58N 33°55' E 130°48'0 0.0
2018-May-13 14:28N 33°55' E 130°48'0 0.0
2018-May-13 13:58N 33°55' E 130°48'0 0.0
2018-May-13 13:28N 33°55' E 130°48'0 0.0
2018-May-13 12:58N 33°55' E 130°48'0 0.0
2018-May-13 12:28N 33°55' E 130°48'0 0.0
2018-May-13 11:58N 33°55' E 130°48'0 0.0
2018-May-13 11:28N 33°55' E 130°48'0 0.0
2018-May-13 10:58N 33°55' E 130°48'0 0.0
2018-May-13 10:28N 33°55' E 130°48'0 0.0
2018-May-13 09:58N 33°55' E 130°48'0 0.0
2018-May-13 09:28N 33°55' E 130°48'  
Track history (hours):
 
Tides and Currents Weather Stations Pressure Air Temp Water Temp Dewpoint Dewpoint Depression Visibility Wind Speed Wind Dir Waves Ship Positions

Ryukaku

Last reported at 2018-May-23 09:28 UTC. Time now 2018-Jun-18 15:13 UTC.
Position N 34°25' E 134°22'.
Warning: this ship's position is 26 days out of date.

Length 74 m; draft 4 m.

Type: Cargo ship. MMSI: 431000913.

Date/timePositionNaut miles runAvg speedWind from/ knotsBaromVisibWave heightAir tempDewpointWater temp
2018-May-23 09:28N 34°25' E 134°22'612.1
2018-May-23 08:58N 34°27' E 134°29'612.4
2018-May-23 08:30N 34°29' E 134°35'612.6
2018-May-23 08:00N 34°32' E 134°43'713.4
2018-May-23 07:31N 34°34' E 134°50'1013.7
2018-May-23 06:48N 34°37' E 135°01'412.8
2018-May-23 06:30N 34°36' E 135°05'611.5
2018-May-23 06:00N 34°39' E 135°11'2 3.2
2018-May-23 05:30N 34°40' E 135°11'0 0.0
2018-May-23 05:00N 34°40' E 135°11'0 0.0
2018-May-23 04:27N 34°40' E 135°11'0 0.0
2018-May-23 03:57N 34°40' E 135°11'1 2.2
2018-May-23 03:30N 34°39' E 135°11'1 2.1
2018-May-23 02:58N 34°38' E 135°11'0 0.1
2018-May-23 02:22N 34°38' E 135°11'0 0.0
2018-May-23 01:58N 34°38' E 135°11'0 0.0
2018-May-23 01:22N 34°38' E 135°11'0 0.1
2018-May-23 00:58N 34°38' E 135°11'0 0.0
2018-May-23 00:28N 34°38' E 135°11'0 0.1
2018-May-22 23:58N 34°38' E 135°11'0 0.1
2018-May-22 23:28N 34°38' E 135°11'2 4.7
2018-May-22 23:00N 34°38' E 135°13'3 6.4
2018-May-22 22:30N 34°41' E 135°14'1 1.5
2018-May-22 21:50N 34°41' E 135°13'0 0.0
2018-May-22 21:02N 34°41' E 135°13'0 0.0
2018-May-22 20:56N 34°41' E 135°13'0 0.0
2018-May-22 20:26N 34°41' E 135°13'0 0.0
2018-May-22 19:56N 34°41' E 135°13'0 0.0
2018-May-22 19:26N 34°41' E 135°13'0 0.0
2018-May-22 18:50N 34°41' E 135°13'0 0.0
2018-May-22 18:26N 34°41' E 135°13'0 0.0
2018-May-22 17:44N 34°41' E 135°13'0 0.0
2018-May-22 17:14N 34°41' E 135°13'0 0.0
2018-May-22 16:20N 34°41' E 135°13'0 0.0
2018-May-22 15:56N 34°41' E 135°13'0 0.0
2018-May-22 15:26N 34°41' E 135°13'0 0.0
2018-May-22 14:56N 34°41' E 135°13'0 0.0
2018-May-22 14:26N 34°41' E 135°13'0 0.0
2018-May-22 13:50N 34°41' E 135°13'0 0.0
2018-May-22 13:26N 34°41' E 135°13'0 0.0
2018-May-22 12:56N 34°41' E 135°13'0 0.0
2018-May-22 12:20N 34°41' E 135°13'0 0.0
2018-May-22 11:56N 34°41' E 135°13'0 0.0
2018-May-22 11:26N 34°41' E 135°13'0 0.0
2018-May-22 10:44N 34°41' E 135°13'0 0.0
2018-May-22 10:26N 34°41' E 135°13'0 0.0
2018-May-22 09:50N 34°41' E 135°13'0 0.0
2018-May-22 09:26N 34°41' E 135°13'0 0.0
2018-May-22 08:56N 34°41' E 135°13'0 0.0
2018-May-22 08:26N 34°41' E 135°13'0 0.0
2018-May-22 07:56N 34°41' E 135°13'0 0.0
2018-May-22 07:20N 34°41' E 135°13'0 0.0
2018-May-22 06:56N 34°41' E 135°13'0 0.0
2018-May-22 06:14N 34°41' E 135°13'0 0.0
2018-May-22 05:56N 34°41' E 135°13'0 0.0
2018-May-22 05:26N 34°41' E 135°13'0 0.0
2018-May-22 04:56N 34°41' E 135°13'0 0.0
2018-May-22 04:26N 34°41' E 135°13'0 0.0
2018-May-22 03:56N 34°41' E 135°13'0 0.0
2018-May-22 03:14N 34°41' E 135°13'0 0.0
2018-May-22 02:56N 34°41' E 135°13'0 0.0
2018-May-22 02:26N 34°41' E 135°13'0 0.0
2018-May-22 01:56N 34°41' E 135°13'0 0.0
2018-May-22 01:26N 34°41' E 135°13'0 0.0
2018-May-22 00:56N 34°41' E 135°13'0 0.0
2018-May-22 00:26N 34°41' E 135°13'0 0.0
2018-May-21 23:56N 34°41' E 135°13'0 0.0
2018-May-21 23:26N 34°41' E 135°13'0 0.0
2018-May-21 22:56N 34°41' E 135°13'0 0.3
2018-May-21 22:30N 34°42' E 135°13'3 6.4
2018-May-21 22:00N 34°39' E 135°16'1 1.1
2018-May-21 21:26N 34°39' E 135°15'0 0.0
2018-May-21 20:56N 34°39' E 135°15'0 0.0
2018-May-21 20:26N 34°39' E 135°15'0 0.0
2018-May-21 19:56N 34°39' E 135°15'0 0.0
2018-May-21 19:26N 34°39' E 135°15'0 0.0
2018-May-21 18:50N 34°39' E 135°15'0 0.0
2018-May-21 18:26N 34°39' E 135°15'0 0.0
2018-May-21 17:56N 34°39' E 135°15'0 0.1
2018-May-21 17:20N 34°39' E 135°15'0 0.0
2018-May-21 16:56N 34°38' E 135°15'0 0.0
2018-May-21 16:20N 34°39' E 135°15'0 0.0
2018-May-21 15:56N 34°39' E 135°15'0 0.0
2018-May-21 15:26N 34°39' E 135°15'0 0.1
2018-May-21 14:50N 34°39' E 135°16'0 0.0
2018-May-21 14:26N 34°39' E 135°16'0 0.0
2018-May-21 13:59N 34°39' E 135°16'0 0.0
2018-May-21 13:29N 34°39' E 135°16'0 0.0
2018-May-21 12:59N 34°39' E 135°16'0 0.0
2018-May-21 12:26N 34°39' E 135°16'0 0.0
2018-May-21 11:50N 34°39' E 135°16'0 0.0
2018-May-21 11:20N 34°39' E 135°16'0 0.0
2018-May-21 10:56N 34°39' E 135°16'0 0.0
2018-May-21 10:20N 34°39' E 135°16'2 6.6
2018-May-21 10:00N 34°37' E 135°14'712.9
2018-May-21 09:28N 34°35' E 135°06'713.7
2018-May-21 08:59N 34°37' E 134°58'613.4
2018-May-21 08:30N 34°39' E 134°51'3 0.3
2018-May-20 22:46N 34°42' E 134°50'2 0.9
2018-May-20 20:28N 34°41' E 134°48'0 0.0
2018-May-20 19:58N 34°41' E 134°48'0 0.0
2018-May-20 02:11N 34°41' E 134°48'1 5.0
2018-May-20 02:00N 34°41' E 134°47'1010.9
2018-May-20 01:03N 34°34' E 134°37'  
2018-May-14 09:55N 33°23' E 129°34'510.9
2018-May-14 09:27N 33°27' E 129°38'612.1
2018-May-14 08:59N 33°31' E 129°43'612.4
2018-May-14 08:30N 33°35' E 129°48'612.5
2018-May-14 07:59N 33°39' E 129°54'612.3
2018-May-14 07:29N 33°43' E 129°60'612.1
2018-May-14 07:00N 33°46' E 130°06'612.0
2018-May-14 06:30N 33°49' E 130°12'611.8
2018-May-14 06:00N 33°52' E 130°18'611.5
2018-May-14 05:30N 33°56' E 130°23'611.0
2018-May-14 05:00N 33°58' E 130°29'510.8
2018-May-14 04:30N 33°60' E 130°36'510.9
2018-May-14 04:00N 34°02' E 130°42'510.0
2018-May-14 03:30N 34°02' E 130°48'5 9.0
2018-May-14 03:00N 33°58' E 130°50'3 6.9
2018-May-14 02:30N 33°55' E 130°49'1 1.3
2018-May-14 02:00N 33°55' E 130°48'0 0.0
2018-May-14 01:31N 33°55' E 130°48'0 0.0
2018-May-14 00:58N 33°55' E 130°48'0 0.0
2018-May-14 00:28N 33°55' E 130°48'0 0.0
2018-May-13 23:55N 33°55' E 130°48'0 0.0
2018-May-13 23:28N 33°55' E 130°48'0 0.0
2018-May-13 22:58N 33°55' E 130°48'0 0.0
2018-May-13 22:28N 33°55' E 130°48'0 0.0
2018-May-13 21:58N 33°55' E 130°48'0 0.0
2018-May-13 21:28N 33°55' E 130°48'0 0.0
2018-May-13 20:58N 33°55' E 130°48'0 0.0
2018-May-13 20:28N 33°55' E 130°48'0 0.0
2018-May-13 19:58N 33°55' E 130°48'0 0.0
2018-May-13 19:28N 33°55' E 130°48'0 0.0
2018-May-13 18:58N 33°55' E 130°48'0 0.0
2018-May-13 18:28N 33°55' E 130°48'0 0.0
2018-May-13 17:58N 33°55' E 130°48'0 0.0
2018-May-13 17:28N 33°55' E 130°48'0 0.0
2018-May-13 16:58N 33°55' E 130°48'0 0.0
2018-May-13 16:28N 33°55' E 130°48'0 0.0
2018-May-13 15:58N 33°55' E 130°48'0 0.0
2018-May-13 15:28N 33°55' E 130°48'0 0.0
2018-May-13 14:58N 33°55' E 130°48'0 0.0
2018-May-13 14:28N 33°55' E 130°48'0 0.0
2018-May-13 13:58N 33°55' E 130°48'0 0.0
2018-May-13 13:28N 33°55' E 130°48'0 0.0
2018-May-13 12:58N 33°55' E 130°48'0 0.0
2018-May-13 12:28N 33°55' E 130°48'0 0.0
2018-May-13 11:58N 33°55' E 130°48'0 0.0
2018-May-13 11:28N 33°55' E 130°48'0 0.0
2018-May-13 10:58N 33°55' E 130°48'0 0.0
2018-May-13 10:28N 33°55' E 130°48'0 0.0
2018-May-13 09:58N 33°55' E 130°48'0 0.0
2018-May-13 09:28N 33°55' E 130°48'  

Dump ship's entire track history